| Date | Time | Temp. (oF) | Dew Point (oF) | Rel. Hum. (%) | Press. (in.) | Wind Dir. | Wind Speed (mph) | Hourly Rainfall (in.) |
|
|---|---|---|---|---|---|---|---|---|---|
| 1 | 06/07 | 00:00 | 60 | 56 | 89 | 30.05 | SSW | 0 | 0.00 |
| 2 | 06/06 | 23:00 | 61 | 57 | 87 | 30.05 | SSW | 2 | 0.00 |
| 3 | 06/06 | 22:00 | 63 | 57 | 81 | 30.05 | SSW | 3 | 0.00 |
| 4 | 06/06 | 21:00 | 66 | 57 | 73 | 30.03 | ENE | 1 | 0.00 |
| 5 | 06/06 | 20:00 | 69 | 57 | 68 | 30.02 | SE | 1 | 0.00 |
| 6 | 06/06 | 19:00 | 70 | 57 | 64 | 30.00 | SE | 3 | 0.00 |
| 7 | 06/06 | 18:00 | 71 | 56 | 60 | 29.99 | S | 2 | 0.00 |
| 8 | 06/06 | 17:00 | 71 | 56 | 61 | 30.02 | WNW | 4 | 0.00 |
| 9 | 06/06 | 16:00 | 70 | 55 | 61 | 30.02 | SSW | 2 | 0.00 |
| 10 | 06/06 | 15:00 | 71 | 56 | 61 | 30.03 | NNE | 1 | 0.00 |
| 11 | 06/06 | 14:00 | 69 | 55 | 63 | 30.04 | NW | 4 | 0.00 |
| 12 | 06/06 | 13:00 | 68 | 55 | 65 | 30.05 | W | 2 | 0.00 |
| 13 | 06/06 | 12:00 | 68 | 55 | 64 | 30.04 | WNW | 6 | 0.00 |
| 14 | 06/06 | 11:00 | 66 | 55 | 68 | 30.04 | W | 3 | 0.00 |
| 15 | 06/06 | 10:00 | 65 | 55 | 72 | 30.04 | NNE | 6 | 0.00 |
| 16 | 06/06 | 09:00 | 63 | 54 | 74 | 30.03 | NNW | 3 | 0.00 |
| 17 | 06/06 | 08:00 | 60 | 55 | 85 | 30.02 | WNW | 2 | 0.00 |
| 18 | 06/06 | 07:00 | 54 | 53 | 97 | 30.01 | SW | 0 | 0.00 |
| 19 | 06/06 | 06:00 | 53 | 52 | 99 | 30.00 | W | 3 | 0.00 |
| 20 | 06/06 | 05:00 | 52 | 51 | 100 | 29.98 | WSW | 2 | 0.00 |
| 21 | 06/06 | 04:00 | 52 | 51 | 100 | 29.97 | SSW | 1 | 0.00 |
| 22 | 06/06 | 03:00 | 53 | 52 | 98 | 29.96 | WSW | 0 | 0.00 |
| 23 | 06/06 | 02:00 | 53 | 52 | 97 | 29.95 | W | 1 | 0.00 |
| 24 | 06/06 | 01:00 | 53 | 51 | 95 | 29.94 | SW | 1 | 0.00 |